sensor_id;sensor_type;location;lat;lon;timestamp;P1;durP1;ratioP1;P2;durP2;ratioP2
72117;SDS011;59992;47.490;8.736;2022-07-22T00:02:06;6.20;;;4.40;;
72117;SDS011;59992;47.490;8.736;2022-07-22T00:04:57;7.50;;;4.70;;
72117;SDS011;59992;47.490;8.736;2022-07-22T00:07:47;6.90;;;4.90;;
72117;SDS011;59992;47.490;8.736;2022-07-22T00:10:38;7.20;;;4.90;;
72117;SDS011;59992;47.490;8.736;2022-07-22T00:13:29;6.30;;;4.30;;
72117;SDS011;59992;47.490;8.736;2022-07-22T00:16:20;7.00;;;4.40;;
72117;SDS011;59992;47.490;8.736;2022-07-22T00:19:11;8.50;;;4.70;;
72117;SDS011;59992;47.490;8.736;2022-07-22T00:22:01;6.60;;;4.60;;
72117;SDS011;59992;47.490;8.736;2022-07-22T00:24:52;7.10;;;4.30;;
72117;SDS011;59992;47.490;8.736;2022-07-22T00:27:42;8.50;;;4.70;;
72117;SDS011;59992;47.490;8.736;2022-07-22T00:30:33;6.80;;;4.90;;
72117;SDS011;59992;47.490;8.736;2022-07-22T00:33:24;7.00;;;5.00;;
72117;SDS011;59992;47.490;8.736;2022-07-22T00:36:14;6.40;;;4.40;;
72117;SDS011;59992;47.490;8.736;2022-07-22T00:39:05;7.20;;;4.50;;
72117;SDS011;59992;47.490;8.736;2022-07-22T00:41:55;6.90;;;4.50;;
72117;SDS011;59992;47.490;8.736;2022-07-22T00:44:47;7.40;;;4.50;;
72117;SDS011;59992;47.490;8.736;2022-07-22T00:47:37;9.70;;;5.00;;
72117;SDS011;59992;47.490;8.736;2022-07-22T00:50:28;8.50;;;4.60;;
72117;SDS011;59992;47.490;8.736;2022-07-22T00:53:18;7.10;;;4.70;;
72117;SDS011;59992;47.490;8.736;2022-07-22T00:56:09;9.20;;;5.20;;
72117;SDS011;59992;47.490;8.736;2022-07-22T00:59:01;7.10;;;4.70;;
72117;SDS011;59992;47.490;8.736;2022-07-22T01:01:54;8.60;;;5.50;;
72117;SDS011;59992;47.490;8.736;2022-07-22T01:04:45;8.50;;;5.30;;
72117;SDS011;59992;47.490;8.736;2022-07-22T01:07:36;7.80;;;5.20;;
72117;SDS011;59992;47.490;8.736;2022-07-22T01:10:26;9.90;;;5.50;;
72117;SDS011;59992;47.490;8.736;2022-07-22T01:13:17;11.20;;;5.60;;
72117;SDS011;59992;47.490;8.736;2022-07-22T01:16:08;8.60;;;5.60;;
72117;SDS011;59992;47.490;8.736;2022-07-22T01:19:00;10.00;;;6.10;;
72117;SDS011;59992;47.490;8.736;2022-07-22T01:21:51;7.70;;;4.80;;
72117;SDS011;59992;47.490;8.736;2022-07-22T01:24:41;9.00;;;5.20;;
72117;SDS011;59992;47.490;8.736;2022-07-22T01:27:32;7.90;;;5.20;;
72117;SDS011;59992;47.490;8.736;2022-07-22T01:30:22;8.90;;;5.60;;
72117;SDS011;59992;47.490;8.736;2022-07-22T01:33:13;8.50;;;5.50;;
72117;SDS011;59992;47.490;8.736;2022-07-22T01:36:04;8.30;;;5.70;;
72117;SDS011;59992;47.490;8.736;2022-07-22T01:38:56;9.20;;;5.40;;
72117;SDS011;59992;47.490;8.736;2022-07-22T01:41:46;9.70;;;6.50;;
72117;SDS011;59992;47.490;8.736;2022-07-22T01:44:37;10.30;;;6.50;;
72117;SDS011;59992;47.490;8.736;2022-07-22T01:47:28;10.60;;;6.60;;
72117;SDS011;59992;47.490;8.736;2022-07-22T01:50:19;10.20;;;6.80;;
72117;SDS011;59992;47.490;8.736;2022-07-22T01:53:10;8.80;;;5.90;;
72117;SDS011;59992;47.490;8.736;2022-07-22T01:56:00;10.70;;;6.60;;
72117;SDS011;59992;47.490;8.736;2022-07-22T01:58:51;10.00;;;6.10;;
72117;SDS011;59992;47.490;8.736;2022-07-22T02:01:42;9.80;;;6.40;;
72117;SDS011;59992;47.490;8.736;2022-07-22T02:04:32;9.80;;;6.40;;
72117;SDS011;59992;47.490;8.736;2022-07-22T02:07:23;10.70;;;6.40;;
72117;SDS011;59992;47.490;8.736;2022-07-22T02:10:13;11.40;;;6.70;;
72117;SDS011;59992;47.490;8.736;2022-07-22T02:13:04;12.60;;;6.90;;
72117;SDS011;59992;47.490;8.736;2022-07-22T02:15:55;11.30;;;7.50;;
72117;SDS011;59992;47.490;8.736;2022-07-22T02:18:45;9.70;;;6.80;;
72117;SDS011;59992;47.490;8.736;2022-07-22T02:21:36;11.30;;;7.70;;
72117;SDS011;59992;47.490;8.736;2022-07-22T02:24:27;10.80;;;6.90;;
72117;SDS011;59992;47.490;8.736;2022-07-22T02:27:17;10.10;;;6.40;;
72117;SDS011;59992;47.490;8.736;2022-07-22T02:30:09;8.60;;;6.20;;
72117;SDS011;59992;47.490;8.736;2022-07-22T02:33:01;11.70;;;7.00;;
72117;SDS011;59992;47.490;8.736;2022-07-22T02:35:51;10.50;;;6.70;;
72117;SDS011;59992;47.490;8.736;2022-07-22T02:38:42;10.20;;;6.40;;
72117;SDS011;59992;47.490;8.736;2022-07-22T02:41:32;9.60;;;6.90;;
72117;SDS011;59992;47.490;8.736;2022-07-22T02:44:23;9.10;;;6.60;;
72117;SDS011;59992;47.490;8.736;2022-07-22T02:47:13;8.20;;;5.70;;
72117;SDS011;59992;47.490;8.736;2022-07-22T02:50:05;9.60;;;6.60;;
72117;SDS011;59992;47.490;8.736;2022-07-22T02:52:56;13.00;;;6.50;;
72117;SDS011;59992;47.490;8.736;2022-07-22T02:55:46;10.20;;;6.30;;
72117;SDS011;59992;47.490;8.736;2022-07-22T02:58:37;9.60;;;6.10;;
72117;SDS011;59992;47.490;8.736;2022-07-22T03:01:28;10.50;;;5.80;;
72117;SDS011;59992;47.490;8.736;2022-07-22T03:04:18;9.50;;;6.50;;
72117;SDS011;59992;47.490;8.736;2022-07-22T03:07:09;9.40;;;6.40;;
72117;SDS011;59992;47.490;8.736;2022-07-22T03:10:00;9.80;;;6.20;;
72117;SDS011;59992;47.490;8.736;2022-07-22T03:12:51;7.90;;;6.00;;
72117;SDS011;59992;47.490;8.736;2022-07-22T03:15:42;9.60;;;5.80;;
72117;SDS011;59992;47.490;8.736;2022-07-22T03:18:32;10.00;;;6.00;;
72117;SDS011;59992;47.490;8.736;2022-07-22T03:21:24;10.30;;;6.30;;
72117;SDS011;59992;47.490;8.736;2022-07-22T03:24:15;9.00;;;6.30;;
72117;SDS011;59992;47.490;8.736;2022-07-22T03:27:05;9.40;;;6.80;;
72117;SDS011;59992;47.490;8.736;2022-07-22T03:29:56;10.40;;;7.00;;
72117;SDS011;59992;47.490;8.736;2022-07-22T03:32:47;9.20;;;6.50;;
72117;SDS011;59992;47.490;8.736;2022-07-22T03:35:37;9.30;;;6.10;;
72117;SDS011;59992;47.490;8.736;2022-07-22T03:38:29;12.30;;;6.50;;
72117;SDS011;59992;47.490;8.736;2022-07-22T03:41:20;11.40;;;6.50;;
72117;SDS011;59992;47.490;8.736;2022-07-22T03:44:11;9.60;;;6.50;;
72117;SDS011;59992;47.490;8.736;2022-07-22T03:47:02;11.00;;;6.60;;
72117;SDS011;59992;47.490;8.736;2022-07-22T03:49:52;9.90;;;6.10;;
72117;SDS011;59992;47.490;8.736;2022-07-22T03:52:44;10.20;;;6.50;;
72117;SDS011;59992;47.490;8.736;2022-07-22T03:55:35;9.80;;;6.70;;
72117;SDS011;59992;47.490;8.736;2022-07-22T03:58:25;10.90;;;7.00;;
72117;SDS011;59992;47.490;8.736;2022-07-22T04:01:16;10.70;;;6.60;;
72117;SDS011;59992;47.490;8.736;2022-07-22T04:04:07;9.70;;;6.40;;
72117;SDS011;59992;47.490;8.736;2022-07-22T04:06:58;9.30;;;6.40;;
72117;SDS011;59992;47.490;8.736;2022-07-22T04:09:48;10.50;;;6.40;;
72117;SDS011;59992;47.490;8.736;2022-07-22T04:12:39;8.90;;;6.30;;
72117;SDS011;59992;47.490;8.736;2022-07-22T04:15:30;9.70;;;6.30;;
72117;SDS011;59992;47.490;8.736;2022-07-22T04:18:21;10.40;;;6.50;;
72117;SDS011;59992;47.490;8.736;2022-07-22T04:21:12;10.80;;;6.60;;
72117;SDS011;59992;47.490;8.736;2022-07-22T04:24:02;9.30;;;6.60;;
72117;SDS011;59992;47.490;8.736;2022-07-22T04:26:53;9.60;;;6.40;;
72117;SDS011;59992;47.490;8.736;2022-07-22T04:29:44;10.30;;;6.10;;
72117;SDS011;59992;47.490;8.736;2022-07-22T04:32:34;11.30;;;6.70;;
72117;SDS011;59992;47.490;8.736;2022-07-22T04:35:25;10.00;;;6.80;;
72117;SDS011;59992;47.490;8.736;2022-07-22T04:38:16;8.80;;;6.40;;
72117;SDS011;59992;47.490;8.736;2022-07-22T04:41:07;8.00;;;5.90;;
72117;SDS011;59992;47.490;8.736;2022-07-22T04:43:57;8.40;;;5.60;;
72117;SDS011;59992;47.490;8.736;2022-07-22T04:46:48;9.90;;;5.80;;
72117;SDS011;59992;47.490;8.736;2022-07-22T04:49:38;9.30;;;5.80;;
72117;SDS011;59992;47.490;8.736;2022-07-22T04:52:29;8.00;;;5.40;;
72117;SDS011;59992;47.490;8.736;2022-07-22T04:55:19;7.30;;;5.40;;
72117;SDS011;59992;47.490;8.736;2022-07-22T04:58:10;10.50;;;5.70;;
72117;SDS011;59992;47.490;8.736;2022-07-22T05:01:00;9.30;;;5.20;;
72117;SDS011;59992;47.490;8.736;2022-07-22T05:03:51;10.00;;;5.50;;
72117;SDS011;59992;47.490;8.736;2022-07-22T05:06:42;7.00;;;5.50;;
72117;SDS011;59992;47.490;8.736;2022-07-22T05:09:32;8.20;;;5.90;;
72117;SDS011;59992;47.490;8.736;2022-07-22T05:12:23;7.50;;;5.80;;
72117;SDS011;59992;47.490;8.736;2022-07-22T05:15:13;8.60;;;6.10;;
72117;SDS011;59992;47.490;8.736;2022-07-22T05:18:04;7.30;;;5.60;;
72117;SDS011;59992;47.490;8.736;2022-07-22T05:20:54;9.00;;;5.70;;
72117;SDS011;59992;47.490;8.736;2022-07-22T05:23:45;7.70;;;5.50;;
72117;SDS011;59992;47.490;8.736;2022-07-22T05:26:35;7.60;;;5.80;;
72117;SDS011;59992;47.490;8.736;2022-07-22T05:29:26;7.30;;;5.50;;
72117;SDS011;59992;47.490;8.736;2022-07-22T05:32:16;8.40;;;5.20;;
72117;SDS011;59992;47.490;8.736;2022-07-22T05:35:07;6.80;;;5.50;;
72117;SDS011;59992;47.490;8.736;2022-07-22T05:37:58;7.30;;;5.50;;
72117;SDS011;59992;47.490;8.736;2022-07-22T05:40:48;7.10;;;5.60;;
72117;SDS011;59992;47.490;8.736;2022-07-22T05:43:39;8.00;;;5.80;;
72117;SDS011;59992;47.490;8.736;2022-07-22T05:46:30;7.70;;;5.80;;
72117;SDS011;59992;47.490;8.736;2022-07-22T05:49:21;8.60;;;6.00;;
72117;SDS011;59992;47.490;8.736;2022-07-22T05:52:14;8.40;;;5.90;;
72117;SDS011;59992;47.490;8.736;2022-07-22T05:55:05;8.20;;;6.20;;
72117;SDS011;59992;47.490;8.736;2022-07-22T05:57:56;8.00;;;6.20;;
72117;SDS011;59992;47.490;8.736;2022-07-22T06:00:46;9.70;;;6.40;;
72117;SDS011;59992;47.490;8.736;2022-07-22T06:03:37;10.30;;;6.40;;
72117;SDS011;59992;47.490;8.736;2022-07-22T06:06:28;8.30;;;6.00;;
72117;SDS011;59992;47.490;8.736;2022-07-22T06:09:18;8.00;;;6.10;;
72117;SDS011;59992;47.490;8.736;2022-07-22T06:12:09;8.90;;;6.20;;
72117;SDS011;59992;47.490;8.736;2022-07-22T06:15:00;9.10;;;6.50;;
72117;SDS011;59992;47.490;8.736;2022-07-22T06:17:50;9.60;;;6.80;;
72117;SDS011;59992;47.490;8.736;2022-07-22T06:20:41;9.60;;;6.50;;
72117;SDS011;59992;47.490;8.736;2022-07-22T06:23:32;10.10;;;6.40;;
72117;SDS011;59992;47.490;8.736;2022-07-22T06:26:22;8.00;;;6.30;;
72117;SDS011;59992;47.490;8.736;2022-07-22T06:29:12;10.00;;;6.90;;
72117;SDS011;59992;47.490;8.736;2022-07-22T06:32:04;9.00;;;6.40;;
72117;SDS011;59992;47.490;8.736;2022-07-22T06:34:55;9.10;;;6.90;;
72117;SDS011;59992;47.490;8.736;2022-07-22T06:37:45;8.40;;;6.80;;
72117;SDS011;59992;47.490;8.736;2022-07-22T06:40:36;12.60;;;7.60;;
72117;SDS011;59992;47.490;8.736;2022-07-22T06:43:27;9.10;;;7.10;;
72117;SDS011;59992;47.490;8.736;2022-07-22T06:46:18;8.50;;;6.80;;
72117;SDS011;59992;47.490;8.736;2022-07-22T06:49:08;11.30;;;6.80;;
72117;SDS011;59992;47.490;8.736;2022-07-22T06:51:59;9.60;;;7.00;;
72117;SDS011;59992;47.490;8.736;2022-07-22T06:54:50;8.50;;;7.40;;
72117;SDS011;59992;47.490;8.736;2022-07-22T06:57:40;9.20;;;7.50;;
72117;SDS011;59992;47.490;8.736;2022-07-22T07:00:31;9.00;;;7.20;;
72117;SDS011;59992;47.490;8.736;2022-07-22T07:03:22;8.50;;;7.00;;
72117;SDS011;59992;47.490;8.736;2022-07-22T07:06:13;10.90;;;6.60;;
72117;SDS011;59992;47.490;8.736;2022-07-22T07:09:03;11.00;;;7.00;;
72117;SDS011;59992;47.490;8.736;2022-07-22T07:11:55;8.60;;;7.10;;
72117;SDS011;59992;47.490;8.736;2022-07-22T07:14:45;10.90;;;8.00;;
72117;SDS011;59992;47.490;8.736;2022-07-22T07:17:36;10.00;;;6.90;;
72117;SDS011;59992;47.490;8.736;2022-07-22T07:20:26;9.40;;;7.40;;
72117;SDS011;59992;47.490;8.736;2022-07-22T07:23:17;8.90;;;7.20;;
72117;SDS011;59992;47.490;8.736;2022-07-22T07:26:07;9.80;;;7.40;;
72117;SDS011;59992;47.490;8.736;2022-07-22T07:28:58;9.30;;;7.30;;
72117;SDS011;59992;47.490;8.736;2022-07-22T07:31:49;10.60;;;7.50;;
72117;SDS011;59992;47.490;8.736;2022-07-22T07:34:39;9.10;;;7.40;;
72117;SDS011;59992;47.490;8.736;2022-07-22T07:37:30;10.90;;;7.50;;
72117;SDS011;59992;47.490;8.736;2022-07-22T07:40:20;10.90;;;8.10;;
72117;SDS011;59992;47.490;8.736;2022-07-22T07:43:11;10.10;;;8.10;;
72117;SDS011;59992;47.490;8.736;2022-07-22T07:46:02;9.70;;;8.00;;
72117;SDS011;59992;47.490;8.736;2022-07-22T07:48:53;12.50;;;8.60;;
72117;SDS011;59992;47.490;8.736;2022-07-22T07:51:43;10.10;;;7.60;;
72117;SDS011;59992;47.490;8.736;2022-07-22T07:54:34;10.10;;;7.80;;
72117;SDS011;59992;47.490;8.736;2022-07-22T07:57:26;10.70;;;8.20;;
72117;SDS011;59992;47.490;8.736;2022-07-22T08:00:17;9.70;;;7.80;;
72117;SDS011;59992;47.490;8.736;2022-07-22T08:03:11;12.90;;;7.70;;
72117;SDS011;59992;47.490;8.736;2022-07-22T08:06:03;11.40;;;9.20;;
72117;SDS011;59992;47.490;8.736;2022-07-22T08:08:54;9.80;;;7.60;;
72117;SDS011;59992;47.490;8.736;2022-07-22T08:11:44;13.20;;;8.20;;
72117;SDS011;59992;47.490;8.736;2022-07-22T08:14:35;12.60;;;9.10;;
72117;SDS011;59992;47.490;8.736;2022-07-22T08:17:26;12.40;;;8.00;;
72117;SDS011;59992;47.490;8.736;2022-07-22T08:20:17;12.30;;;8.40;;
72117;SDS011;59992;47.490;8.736;2022-07-22T08:23:07;10.60;;;8.60;;
72117;SDS011;59992;47.490;8.736;2022-07-22T08:25:58;11.90;;;8.70;;
72117;SDS011;59992;47.490;8.736;2022-07-22T08:28:49;10.40;;;8.00;;
72117;SDS011;59992;47.490;8.736;2022-07-22T08:31:39;11.50;;;8.20;;
72117;SDS011;59992;47.490;8.736;2022-07-22T08:34:30;10.60;;;8.50;;
72117;SDS011;59992;47.490;8.736;2022-07-22T08:37:20;11.60;;;9.00;;
72117;SDS011;59992;47.490;8.736;2022-07-22T08:40:11;11.00;;;9.40;;
72117;SDS011;59992;47.490;8.736;2022-07-22T08:43:03;10.20;;;8.10;;
72117;SDS011;59992;47.490;8.736;2022-07-22T08:45:54;10.10;;;9.00;;
72117;SDS011;59992;47.490;8.736;2022-07-22T08:48:45;12.40;;;7.50;;
72117;SDS011;59992;47.490;8.736;2022-07-22T08:51:36;10.60;;;8.50;;
72117;SDS011;59992;47.490;8.736;2022-07-22T08:54:27;10.70;;;8.30;;
72117;SDS011;59992;47.490;8.736;2022-07-22T08:57:18;11.10;;;8.70;;
72117;SDS011;59992;47.490;8.736;2022-07-22T09:00:11;9.10;;;8.00;;
72117;SDS011;59992;47.490;8.736;2022-07-22T09:03:17;10.20;;;8.30;;
72117;SDS011;59992;47.490;8.736;2022-07-22T09:06:10;10.40;;;8.10;;
72117;SDS011;59992;47.490;8.736;2022-07-22T09:09:02;10.10;;;7.80;;
72117;SDS011;59992;47.490;8.736;2022-07-22T09:12:04;10.90;;;8.60;;
72117;SDS011;59992;47.490;8.736;2022-07-22T09:14:56;12.10;;;8.80;;
72117;SDS011;59992;47.490;8.736;2022-07-22T09:17:48;15.40;;;8.50;;
72117;SDS011;59992;47.490;8.736;2022-07-22T09:20:39;10.10;;;8.10;;
72117;SDS011;59992;47.490;8.736;2022-07-22T09:23:38;13.80;;;8.70;;
72117;SDS011;59992;47.490;8.736;2022-07-22T09:26:30;9.10;;;7.40;;
72117;SDS011;59992;47.490;8.736;2022-07-22T09:29:23;10.20;;;8.30;;
72117;SDS011;59992;47.490;8.736;2022-07-22T09:32:13;12.50;;;8.50;;
72117;SDS011;59992;47.490;8.736;2022-07-22T09:35:04;11.50;;;8.20;;
72117;SDS011;59992;47.490;8.736;2022-07-22T09:37:57;10.50;;;8.20;;
72117;SDS011;59992;47.490;8.736;2022-07-22T09:40:49;11.10;;;8.40;;
72117;SDS011;59992;47.490;8.736;2022-07-22T09:43:41;10.50;;;7.80;;
72117;SDS011;59992;47.490;8.736;2022-07-22T09:46:38;10.30;;;7.50;;
72117;SDS011;59992;47.490;8.736;2022-07-22T09:49:32;10.00;;;8.00;;
72117;SDS011;59992;47.490;8.736;2022-07-22T09:52:25;10.50;;;8.00;;
72117;SDS011;59992;47.490;8.736;2022-07-22T09:55:17;8.80;;;7.10;;
72117;SDS011;59992;47.490;8.736;2022-07-22T09:58:09;9.90;;;7.30;;
72117;SDS011;59992;47.490;8.736;2022-07-22T10:01:02;8.10;;;7.30;;
72117;SDS011;59992;47.490;8.736;2022-07-22T10:03:55;10.70;;;6.80;;
72117;SDS011;59992;47.490;8.736;2022-07-22T10:06:46;17.10;;;10.00;;
72117;SDS011;59992;47.490;8.736;2022-07-22T10:09:39;25.70;;;15.10;;
72117;SDS011;59992;47.490;8.736;2022-07-22T10:12:37;9.70;;;6.70;;
72117;SDS011;59992;47.490;8.736;2022-07-22T10:15:29;8.20;;;6.20;;
72117;SDS011;59992;47.490;8.736;2022-07-22T10:18:20;10.50;;;8.00;;
72117;SDS011;59992;47.490;8.736;2022-07-22T10:21:13;12.90;;;7.30;;
72117;SDS011;59992;47.490;8.736;2022-07-22T10:24:09;12.10;;;8.00;;
72117;SDS011;59992;47.490;8.736;2022-07-22T10:27:00;12.90;;;7.90;;
72117;SDS011;59992;47.490;8.736;2022-07-22T10:29:51;8.70;;;7.00;;
72117;SDS011;59992;47.490;8.736;2022-07-22T10:33:02;9.40;;;7.60;;
72117;SDS011;59992;47.490;8.736;2022-07-22T10:35:55;9.00;;;7.00;;
72117;SDS011;59992;47.490;8.736;2022-07-22T10:41:54;8.60;;;7.00;;
72117;SDS011;59992;47.490;8.736;2022-07-22T10:44:48;12.00;;;7.60;;
72117;SDS011;59992;47.490;8.736;2022-07-22T10:47:54;11.30;;;7.40;;
72117;SDS011;59992;47.490;8.736;2022-07-22T10:50:48;9.70;;;7.70;;
72117;SDS011;59992;47.490;8.736;2022-07-22T10:53:44;9.70;;;7.30;;
72117;SDS011;59992;47.490;8.736;2022-07-22T10:56:41;9.50;;;7.50;;
72117;SDS011;59992;47.490;8.736;2022-07-22T10:59:34;9.10;;;6.70;;
72117;SDS011;59992;47.490;8.736;2022-07-22T11:02:24;10.40;;;6.80;;
72117;SDS011;59992;47.490;8.736;2022-07-22T11:05:25;10.90;;;7.60;;
72117;SDS011;59992;47.490;8.736;2022-07-22T11:08:18;10.80;;;7.30;;
72117;SDS011;59992;47.490;8.736;2022-07-22T11:11:09;9.30;;;6.70;;
72117;SDS011;59992;47.490;8.736;2022-07-22T11:14:00;7.90;;;6.20;;
72117;SDS011;59992;47.490;8.736;2022-07-22T11:16:51;9.40;;;6.30;;
72117;SDS011;59992;47.490;8.736;2022-07-22T11:19:43;9.60;;;6.70;;
72117;SDS011;59992;47.490;8.736;2022-07-22T11:22:34;9.70;;;6.00;;
72117;SDS011;59992;47.490;8.736;2022-07-22T11:25:25;7.90;;;5.60;;
72117;SDS011;59992;47.490;8.736;2022-07-22T11:28:16;7.60;;;5.40;;
72117;SDS011;59992;47.490;8.736;2022-07-22T11:31:07;10.00;;;6.00;;
72117;SDS011;59992;47.490;8.736;2022-07-22T11:34:08;8.10;;;5.80;;
72117;SDS011;59992;47.490;8.736;2022-07-22T11:37:00;10.20;;;6.20;;
72117;SDS011;59992;47.490;8.736;2022-07-22T11:39:51;9.00;;;5.90;;
72117;SDS011;59992;47.490;8.736;2022-07-22T11:42:47;8.60;;;5.90;;
72117;SDS011;59992;47.490;8.736;2022-07-22T11:45:57;7.70;;;6.00;;
72117;SDS011;59992;47.490;8.736;2022-07-22T11:48:47;6.50;;;5.10;;
72117;SDS011;59992;47.490;8.736;2022-07-22T11:51:38;8.50;;;5.50;;
72117;SDS011;59992;47.490;8.736;2022-07-22T11:54:28;10.50;;;6.20;;
72117;SDS011;59992;47.490;8.736;2022-07-22T11:57:19;9.20;;;5.80;;
72117;SDS011;59992;47.490;8.736;2022-07-22T12:00:10;7.80;;;5.90;;
72117;SDS011;59992;47.490;8.736;2022-07-22T12:03:02;7.30;;;5.20;;
72117;SDS011;59992;47.490;8.736;2022-07-22T12:05:54;7.80;;;5.80;;
72117;SDS011;59992;47.490;8.736;2022-07-22T12:08:46;6.70;;;5.60;;
72117;SDS011;59992;47.490;8.736;2022-07-22T12:11:42;8.20;;;5.80;;
72117;SDS011;59992;47.490;8.736;2022-07-22T12:14:34;9.70;;;6.20;;
72117;SDS011;59992;47.490;8.736;2022-07-22T12:17:28;8.50;;;5.90;;
72117;SDS011;59992;47.490;8.736;2022-07-22T12:20:18;8.10;;;5.80;;
72117;SDS011;59992;47.490;8.736;2022-07-22T12:23:14;9.30;;;5.60;;
72117;SDS011;59992;47.490;8.736;2022-07-22T12:26:06;6.70;;;5.00;;
72117;SDS011;59992;47.490;8.736;2022-07-22T12:32:03;8.80;;;5.70;;
72117;SDS011;59992;47.490;8.736;2022-07-22T12:34:56;7.20;;;5.50;;
72117;SDS011;59992;47.490;8.736;2022-07-22T12:37:48;10.10;;;6.00;;
72117;SDS011;59992;47.490;8.736;2022-07-22T12:40:39;8.00;;;5.70;;
72117;SDS011;59992;47.490;8.736;2022-07-22T12:43:30;8.70;;;5.80;;
72117;SDS011;59992;47.490;8.736;2022-07-22T12:46:20;7.80;;;5.20;;
72117;SDS011;59992;47.490;8.736;2022-07-22T12:49:12;8.30;;;5.30;;
72117;SDS011;59992;47.490;8.736;2022-07-22T12:52:06;9.30;;;5.50;;
72117;SDS011;59992;47.490;8.736;2022-07-22T12:54:59;8.30;;;5.80;;
72117;SDS011;59992;47.490;8.736;2022-07-22T12:57:50;7.60;;;5.60;;
72117;SDS011;59992;47.490;8.736;2022-07-22T13:00:42;8.30;;;5.30;;
72117;SDS011;59992;47.490;8.736;2022-07-22T13:03:35;8.10;;;5.90;;
72117;SDS011;59992;47.490;8.736;2022-07-22T13:06:26;8.90;;;4.80;;
72117;SDS011;59992;47.490;8.736;2022-07-22T13:09:16;7.60;;;5.00;;
72117;SDS011;59992;47.490;8.736;2022-07-22T13:12:07;7.40;;;5.40;;
72117;SDS011;59992;47.490;8.736;2022-07-22T13:14:58;7.40;;;5.40;;
72117;SDS011;59992;47.490;8.736;2022-07-22T13:17:49;11.30;;;5.70;;
72117;SDS011;59992;47.490;8.736;2022-07-22T13:20:41;7.90;;;5.30;;
72117;SDS011;59992;47.490;8.736;2022-07-22T13:23:35;7.60;;;5.00;;
72117;SDS011;59992;47.490;8.736;2022-07-22T13:26:26;10.30;;;6.10;;
72117;SDS011;59992;47.490;8.736;2022-07-22T13:29:17;9.60;;;6.40;;
72117;SDS011;59992;47.490;8.736;2022-07-22T13:32:08;7.00;;;5.40;;
72117;SDS011;59992;47.490;8.736;2022-07-22T13:34:59;7.60;;;6.20;;
72117;SDS011;59992;47.490;8.736;2022-07-22T13:37:50;7.50;;;6.10;;
72117;SDS011;59992;47.490;8.736;2022-07-22T13:40:41;7.40;;;5.90;;
72117;SDS011;59992;47.490;8.736;2022-07-22T13:43:37;8.40;;;6.20;;
72117;SDS011;59992;47.490;8.736;2022-07-22T13:46:28;8.50;;;6.00;;
72117;SDS011;59992;47.490;8.736;2022-07-22T13:49:19;7.70;;;6.00;;
72117;SDS011;59992;47.490;8.736;2022-07-22T13:52:10;9.60;;;5.70;;
72117;SDS011;59992;47.490;8.736;2022-07-22T13:55:01;8.10;;;5.90;;
72117;SDS011;59992;47.490;8.736;2022-07-22T13:57:53;7.50;;;5.50;;
72117;SDS011;59992;47.490;8.736;2022-07-22T14:00:45;9.90;;;5.50;;
72117;SDS011;59992;47.490;8.736;2022-07-22T14:03:36;8.00;;;5.90;;
72117;SDS011;59992;47.490;8.736;2022-07-22T14:06:27;7.10;;;5.40;;
72117;SDS011;59992;47.490;8.736;2022-07-22T14:09:19;7.40;;;5.30;;
72117;SDS011;59992;47.490;8.736;2022-07-22T14:12:10;8.00;;;5.70;;
72117;SDS011;59992;47.490;8.736;2022-07-22T14:15:01;6.90;;;5.60;;
72117;SDS011;59992;47.490;8.736;2022-07-22T14:17:55;7.20;;;5.20;;
72117;SDS011;59992;47.490;8.736;2022-07-22T14:20:46;10.20;;;5.80;;
72117;SDS011;59992;47.490;8.736;2022-07-22T14:23:37;10.00;;;6.40;;
72117;SDS011;59992;47.490;8.736;2022-07-22T14:26:28;8.80;;;6.10;;
72117;SDS011;59992;47.490;8.736;2022-07-22T14:29:21;8.60;;;5.80;;
72117;SDS011;59992;47.490;8.736;2022-07-22T14:32:12;9.30;;;5.70;;
72117;SDS011;59992;47.490;8.736;2022-07-22T14:35:03;9.70;;;5.70;;
72117;SDS011;59992;47.490;8.736;2022-07-22T14:37:55;7.30;;;5.60;;
72117;SDS011;59992;47.490;8.736;2022-07-22T14:40:46;8.00;;;6.70;;
72117;SDS011;59992;47.490;8.736;2022-07-22T14:43:39;7.40;;;5.60;;
72117;SDS011;59992;47.490;8.736;2022-07-22T14:46:42;9.90;;;5.90;;
72117;SDS011;59992;47.490;8.736;2022-07-22T14:49:36;8.40;;;5.40;;
72117;SDS011;59992;47.490;8.736;2022-07-22T14:52:27;6.20;;;5.20;;
72117;SDS011;59992;47.490;8.736;2022-07-22T14:55:18;9.80;;;5.60;;
72117;SDS011;59992;47.490;8.736;2022-07-22T14:58:09;6.60;;;5.10;;
72117;SDS011;59992;47.490;8.736;2022-07-22T15:01:01;8.90;;;5.30;;
72117;SDS011;59992;47.490;8.736;2022-07-22T15:03:52;6.60;;;5.30;;
72117;SDS011;59992;47.490;8.736;2022-07-22T15:06:44;8.00;;;5.40;;
72117;SDS011;59992;47.490;8.736;2022-07-22T15:09:46;11.00;;;5.50;;
72117;SDS011;59992;47.490;8.736;2022-07-22T15:12:42;7.40;;;4.90;;
72117;SDS011;59992;47.490;8.736;2022-07-22T15:15:33;6.90;;;4.50;;
72117;SDS011;59992;47.490;8.736;2022-07-22T15:18:26;6.50;;;5.00;;
72117;SDS011;59992;47.490;8.736;2022-07-22T15:21:17;6.10;;;4.70;;
72117;SDS011;59992;47.490;8.736;2022-07-22T15:24:11;7.30;;;5.20;;
72117;SDS011;59992;47.490;8.736;2022-07-22T15:27:01;7.00;;;4.80;;
72117;SDS011;59992;47.490;8.736;2022-07-22T15:29:52;6.80;;;5.30;;
72117;SDS011;59992;47.490;8.736;2022-07-22T15:32:43;7.70;;;5.20;;
72117;SDS011;59992;47.490;8.736;2022-07-22T15:35:34;7.80;;;5.00;;
72117;SDS011;59992;47.490;8.736;2022-07-22T15:38:24;7.30;;;4.40;;
72117;SDS011;59992;47.490;8.736;2022-07-22T15:41:15;7.40;;;4.80;;
72117;SDS011;59992;47.490;8.736;2022-07-22T15:44:06;8.10;;;5.30;;
72117;SDS011;59992;47.490;8.736;2022-07-22T15:46:57;9.00;;;4.70;;
72117;SDS011;59992;47.490;8.736;2022-07-22T15:49:48;5.90;;;4.60;;
72117;SDS011;59992;47.490;8.736;2022-07-22T15:52:41;8.30;;;5.20;;
72117;SDS011;59992;47.490;8.736;2022-07-22T15:55:32;7.50;;;4.50;;
72117;SDS011;59992;47.490;8.736;2022-07-22T15:58:24;5.50;;;4.40;;
72117;SDS011;59992;47.490;8.736;2022-07-22T16:01:32;7.70;;;4.60;;
72117;SDS011;59992;47.490;8.736;2022-07-22T16:04:23;6.20;;;4.00;;
72117;SDS011;59992;47.490;8.736;2022-07-22T16:07:16;6.90;;;4.50;;
72117;SDS011;59992;47.490;8.736;2022-07-22T16:10:07;6.50;;;4.30;;
72117;SDS011;59992;47.490;8.736;2022-07-22T16:12:58;9.80;;;4.30;;
72117;SDS011;59992;47.490;8.736;2022-07-22T16:15:49;7.30;;;4.30;;
72117;SDS011;59992;47.490;8.736;2022-07-22T16:18:39;6.00;;;4.40;;
72117;SDS011;59992;47.490;8.736;2022-07-22T16:21:30;6.00;;;4.40;;
72117;SDS011;59992;47.490;8.736;2022-07-22T16:24:21;4.70;;;3.90;;
72117;SDS011;59992;47.490;8.736;2022-07-22T16:27:12;7.10;;;4.20;;
72117;SDS011;59992;47.490;8.736;2022-07-22T16:30:03;9.10;;;4.90;;
72117;SDS011;59992;47.490;8.736;2022-07-22T16:32:55;5.80;;;4.20;;
72117;SDS011;59992;47.490;8.736;2022-07-22T16:35:45;6.60;;;4.70;;
72117;SDS011;59992;47.490;8.736;2022-07-22T16:38:36;5.60;;;4.20;;
72117;SDS011;59992;47.490;8.736;2022-07-22T16:41:27;6.80;;;4.40;;
72117;SDS011;59992;47.490;8.736;2022-07-22T16:44:17;6.30;;;4.40;;
72117;SDS011;59992;47.490;8.736;2022-07-22T16:47:08;6.70;;;4.50;;
72117;SDS011;59992;47.490;8.736;2022-07-22T16:49:59;6.30;;;4.10;;
72117;SDS011;59992;47.490;8.736;2022-07-22T16:52:50;7.20;;;4.10;;
72117;SDS011;59992;47.490;8.736;2022-07-22T16:55:40;5.80;;;4.50;;
72117;SDS011;59992;47.490;8.736;2022-07-22T16:58:31;6.10;;;4.50;;
72117;SDS011;59992;47.490;8.736;2022-07-22T17:01:22;6.10;;;4.50;;
72117;SDS011;59992;47.490;8.736;2022-07-22T17:04:12;6.80;;;4.70;;
72117;SDS011;59992;47.490;8.736;2022-07-22T17:07:03;6.20;;;4.50;;
72117;SDS011;59992;47.490;8.736;2022-07-22T17:09:55;5.90;;;4.30;;
72117;SDS011;59992;47.490;8.736;2022-07-22T17:12:46;6.70;;;4.90;;
72117;SDS011;59992;47.490;8.736;2022-07-22T17:15:37;6.50;;;4.70;;